sensor_id;sensor_type;location;lat;lon;timestamp;P1;durP1;ratioP1;P2;durP2;ratioP2
61291;SDS011;47165;42.664;23.368;2024-03-17T00:02:18;12.55;;;7.32;;
61291;SDS011;47165;42.664;23.368;2024-03-17T00:04:44;10.38;;;5.97;;
61291;SDS011;47165;42.664;23.368;2024-03-17T00:07:10;10.77;;;5.32;;
61291;SDS011;47165;42.664;23.368;2024-03-17T00:09:36;8.93;;;5.45;;
61291;SDS011;47165;42.664;23.368;2024-03-17T00:12:02;7.88;;;5.13;;
61291;SDS011;47165;42.664;23.368;2024-03-17T00:14:27;9.63;;;5.93;;
61291;SDS011;47165;42.664;23.368;2024-03-17T00:16:53;13.20;;;6.68;;
61291;SDS011;47165;42.664;23.368;2024-03-17T00:19:19;10.15;;;6.20;;
61291;SDS011;47165;42.664;23.368;2024-03-17T00:21:47;13.90;;;7.70;;
61291;SDS011;47165;42.664;23.368;2024-03-17T00:24:21;11.80;;;6.37;;
61291;SDS011;47165;42.664;23.368;2024-03-17T00:26:47;11.60;;;6.53;;
61291;SDS011;47165;42.664;23.368;2024-03-17T00:29:13;8.57;;;4.93;;
61291;SDS011;47165;42.664;23.368;2024-03-17T00:31:39;7.82;;;4.78;;
61291;SDS011;47165;42.664;23.368;2024-03-17T00:34:05;8.50;;;5.32;;
61291;SDS011;47165;42.664;23.368;2024-03-17T00:36:32;11.07;;;6.13;;
61291;SDS011;47165;42.664;23.368;2024-03-17T00:38:58;8.77;;;5.03;;
61291;SDS011;47165;42.664;23.368;2024-03-17T00:41:23;10.25;;;6.18;;
61291;SDS011;47165;42.664;23.368;2024-03-17T00:43:52;8.65;;;4.93;;
61291;SDS011;47165;42.664;23.368;2024-03-17T00:46:21;8.95;;;5.07;;
61291;SDS011;47165;42.664;23.368;2024-03-17T00:48:49;6.75;;;4.32;;
61291;SDS011;47165;42.664;23.368;2024-03-17T00:51:15;10.93;;;6.18;;
61291;SDS011;47165;42.664;23.368;2024-03-17T00:53:41;7.88;;;5.68;;
61291;SDS011;47165;42.664;23.368;2024-03-17T00:56:07;8.20;;;5.20;;
61291;SDS011;47165;42.664;23.368;2024-03-17T00:58:33;10.35;;;6.00;;
61291;SDS011;47165;42.664;23.368;2024-03-17T01:00:58;11.65;;;5.95;;
61291;SDS011;47165;42.664;23.368;2024-03-17T01:03:24;8.40;;;5.32;;
61291;SDS011;47165;42.664;23.368;2024-03-17T01:05:49;12.43;;;6.55;;
61291;SDS011;47165;42.664;23.368;2024-03-17T01:08:17;11.98;;;6.85;;
61291;SDS011;47165;42.664;23.368;2024-03-17T01:10:44;14.55;;;7.88;;
61291;SDS011;47165;42.664;23.368;2024-03-17T01:13:10;15.75;;;6.25;;
61291;SDS011;47165;42.664;23.368;2024-03-17T01:15:36;12.68;;;7.03;;
61291;SDS011;47165;42.664;23.368;2024-03-17T01:18:03;12.57;;;7.20;;
61291;SDS011;47165;42.664;23.368;2024-03-17T01:20:29;12.27;;;6.18;;
61291;SDS011;47165;42.664;23.368;2024-03-17T01:22:55;15.00;;;6.65;;
61291;SDS011;47165;42.664;23.368;2024-03-17T01:25:21;11.55;;;6.55;;
61291;SDS011;47165;42.664;23.368;2024-03-17T01:27:46;15.43;;;6.40;;
61291;SDS011;47165;42.664;23.368;2024-03-17T01:30:12;13.40;;;7.50;;
61291;SDS011;47165;42.664;23.368;2024-03-17T01:32:37;8.18;;;5.18;;
61291;SDS011;47165;42.664;23.368;2024-03-17T01:35:03;16.67;;;7.68;;
61291;SDS011;47165;42.664;23.368;2024-03-17T01:37:29;13.40;;;5.93;;
61291;SDS011;47165;42.664;23.368;2024-03-17T01:40:00;11.35;;;6.07;;
61291;SDS011;47165;42.664;23.368;2024-03-17T01:42:26;13.27;;;6.88;;
61291;SDS011;47165;42.664;23.368;2024-03-17T01:44:51;12.30;;;7.68;;
61291;SDS011;47165;42.664;23.368;2024-03-17T01:47:17;14.50;;;7.82;;
61291;SDS011;47165;42.664;23.368;2024-03-17T01:49:47;15.02;;;6.82;;
61291;SDS011;47165;42.664;23.368;2024-03-17T01:52:14;11.07;;;6.72;;
61291;SDS011;47165;42.664;23.368;2024-03-17T01:54:40;12.02;;;6.57;;
61291;SDS011;47165;42.664;23.368;2024-03-17T01:57:07;10.85;;;5.60;;
61291;SDS011;47165;42.664;23.368;2024-03-17T01:59:32;13.60;;;7.45;;
61291;SDS011;47165;42.664;23.368;2024-03-17T02:01:58;10.88;;;6.20;;
61291;SDS011;47165;42.664;23.368;2024-03-17T02:04:24;12.40;;;6.25;;
61291;SDS011;47165;42.664;23.368;2024-03-17T02:06:50;10.75;;;5.97;;
61291;SDS011;47165;42.664;23.368;2024-03-17T02:09:15;9.85;;;5.10;;
61291;SDS011;47165;42.664;23.368;2024-03-17T02:11:40;14.02;;;7.30;;
61291;SDS011;47165;42.664;23.368;2024-03-17T02:14:07;17.05;;;7.25;;
61291;SDS011;47165;42.664;23.368;2024-03-17T02:16:33;12.90;;;6.25;;
61291;SDS011;47165;42.664;23.368;2024-03-17T02:18:58;13.77;;;6.43;;
61291;SDS011;47165;42.664;23.368;2024-03-17T02:21:27;12.57;;;6.13;;
61291;SDS011;47165;42.664;23.368;2024-03-17T02:23:53;10.13;;;5.97;;
61291;SDS011;47165;42.664;23.368;2024-03-17T02:26:19;14.07;;;6.40;;
61291;SDS011;47165;42.664;23.368;2024-03-17T02:28:45;13.13;;;6.30;;
61291;SDS011;47165;42.664;23.368;2024-03-17T02:31:13;8.65;;;5.60;;
61291;SDS011;47165;42.664;23.368;2024-03-17T02:33:40;9.65;;;5.35;;
61291;SDS011;47165;42.664;23.368;2024-03-17T02:36:07;11.65;;;6.72;;
61291;SDS011;47165;42.664;23.368;2024-03-17T02:38:34;10.65;;;6.40;;
61291;SDS011;47165;42.664;23.368;2024-03-17T02:41:18;9.07;;;5.18;;
61291;SDS011;47165;42.664;23.368;2024-03-17T02:43:44;13.60;;;5.32;;
61291;SDS011;47165;42.664;23.368;2024-03-17T02:46:11;8.48;;;5.07;;
61291;SDS011;47165;42.664;23.368;2024-03-17T02:48:40;10.55;;;5.93;;
61291;SDS011;47165;42.664;23.368;2024-03-17T02:51:13;9.40;;;5.30;;
61291;SDS011;47165;42.664;23.368;2024-03-17T02:53:43;13.35;;;5.93;;
61291;SDS011;47165;42.664;23.368;2024-03-17T02:56:10;7.95;;;3.88;;
61291;SDS011;47165;42.664;23.368;2024-03-17T02:58:36;10.02;;;6.38;;
61291;SDS011;47165;42.664;23.368;2024-03-17T03:01:03;11.63;;;6.03;;
61291;SDS011;47165;42.664;23.368;2024-03-17T03:03:30;11.32;;;5.95;;
61291;SDS011;47165;42.664;23.368;2024-03-17T03:05:56;18.40;;;7.90;;
61291;SDS011;47165;42.664;23.368;2024-03-17T03:08:22;14.65;;;7.22;;
61291;SDS011;47165;42.664;23.368;2024-03-17T03:10:51;13.60;;;7.47;;
61291;SDS011;47165;42.664;23.368;2024-03-17T03:13:16;10.00;;;5.25;;
61291;SDS011;47165;42.664;23.368;2024-03-17T03:15:42;19.77;;;7.07;;
61291;SDS011;47165;42.664;23.368;2024-03-17T03:18:08;11.05;;;4.55;;
61291;SDS011;47165;42.664;23.368;2024-03-17T03:20:34;13.93;;;6.25;;
61291;SDS011;47165;42.664;23.368;2024-03-17T03:23:00;8.02;;;5.13;;
61291;SDS011;47165;42.664;23.368;2024-03-17T03:25:27;9.25;;;5.72;;
61291;SDS011;47165;42.664;23.368;2024-03-17T03:27:53;10.95;;;5.05;;
61291;SDS011;47165;42.664;23.368;2024-03-17T03:30:21;10.55;;;5.07;;
61291;SDS011;47165;42.664;23.368;2024-03-17T03:32:47;13.25;;;6.88;;
61291;SDS011;47165;42.664;23.368;2024-03-17T03:35:13;9.15;;;4.93;;
61291;SDS011;47165;42.664;23.368;2024-03-17T03:37:39;9.10;;;4.63;;
61291;SDS011;47165;42.664;23.368;2024-03-17T03:40:06;12.75;;;4.90;;
61291;SDS011;47165;42.664;23.368;2024-03-17T03:42:44;7.75;;;4.05;;
61291;SDS011;47165;42.664;23.368;2024-03-17T03:45:10;9.38;;;4.38;;
61291;SDS011;47165;42.664;23.368;2024-03-17T03:47:42;9.68;;;4.97;;
61291;SDS011;47165;42.664;23.368;2024-03-17T03:50:11;9.13;;;4.50;;
61291;SDS011;47165;42.664;23.368;2024-03-17T03:52:37;7.55;;;3.60;;
61291;SDS011;47165;42.664;23.368;2024-03-17T03:55:03;6.60;;;4.25;;
61291;SDS011;47165;42.664;23.368;2024-03-17T03:57:32;11.63;;;5.30;;
61291;SDS011;47165;42.664;23.368;2024-03-17T03:59:59;7.03;;;4.40;;
61291;SDS011;47165;42.664;23.368;2024-03-17T04:02:24;10.38;;;6.00;;
61291;SDS011;47165;42.664;23.368;2024-03-17T04:04:56;9.68;;;4.60;;
61291;SDS011;47165;42.664;23.368;2024-03-17T04:07:21;8.75;;;5.18;;
61291;SDS011;47165;42.664;23.368;2024-03-17T04:09:47;12.30;;;4.65;;
61291;SDS011;47165;42.664;23.368;2024-03-17T04:12:12;9.70;;;5.22;;
61291;SDS011;47165;42.664;23.368;2024-03-17T04:14:38;11.85;;;5.55;;
61291;SDS011;47165;42.664;23.368;2024-03-17T04:17:03;8.10;;;4.80;;
61291;SDS011;47165;42.664;23.368;2024-03-17T04:19:30;9.45;;;5.60;;
61291;SDS011;47165;42.664;23.368;2024-03-17T04:21:55;9.35;;;4.90;;
61291;SDS011;47165;42.664;23.368;2024-03-17T04:24:20;8.38;;;4.57;;
61291;SDS011;47165;42.664;23.368;2024-03-17T04:26:46;8.98;;;5.07;;
61291;SDS011;47165;42.664;23.368;2024-03-17T04:29:11;6.70;;;4.68;;
61291;SDS011;47165;42.664;23.368;2024-03-17T04:31:37;9.57;;;5.32;;
61291;SDS011;47165;42.664;23.368;2024-03-17T04:34:03;12.32;;;6.70;;
61291;SDS011;47165;42.664;23.368;2024-03-17T04:36:28;14.82;;;5.90;;
61291;SDS011;47165;42.664;23.368;2024-03-17T04:38:53;10.85;;;5.45;;
61291;SDS011;47165;42.664;23.368;2024-03-17T04:41:19;12.75;;;6.60;;
61291;SDS011;47165;42.664;23.368;2024-03-17T04:43:44;14.65;;;6.40;;
61291;SDS011;47165;42.664;23.368;2024-03-17T04:46:11;12.55;;;6.80;;
61291;SDS011;47165;42.664;23.368;2024-03-17T04:48:38;11.13;;;6.28;;
61291;SDS011;47165;42.664;23.368;2024-03-17T04:51:04;9.57;;;5.28;;
61291;SDS011;47165;42.664;23.368;2024-03-17T04:53:30;8.93;;;5.38;;
61291;SDS011;47165;42.664;23.368;2024-03-17T04:56:04;13.05;;;5.57;;
61291;SDS011;47165;42.664;23.368;2024-03-17T04:58:33;7.75;;;4.75;;
61291;SDS011;47165;42.664;23.368;2024-03-17T05:01:03;9.95;;;4.75;;
61291;SDS011;47165;42.664;23.368;2024-03-17T05:03:29;8.88;;;4.70;;
61291;SDS011;47165;42.664;23.368;2024-03-17T05:05:58;10.30;;;5.63;;
61291;SDS011;47165;42.664;23.368;2024-03-17T05:08:33;6.72;;;3.70;;
61291;SDS011;47165;42.664;23.368;2024-03-17T05:11:03;9.02;;;4.50;;
61291;SDS011;47165;42.664;23.368;2024-03-17T05:13:32;8.80;;;5.13;;
61291;SDS011;47165;42.664;23.368;2024-03-17T05:16:02;9.52;;;4.70;;
61291;SDS011;47165;42.664;23.368;2024-03-17T05:18:31;9.93;;;5.05;;
61291;SDS011;47165;42.664;23.368;2024-03-17T05:21:00;10.80;;;4.97;;
61291;SDS011;47165;42.664;23.368;2024-03-17T05:23:30;7.10;;;3.95;;
61291;SDS011;47165;42.664;23.368;2024-03-17T05:25:56;7.55;;;4.22;;
61291;SDS011;47165;42.664;23.368;2024-03-17T05:28:24;8.77;;;4.80;;
61291;SDS011;47165;42.664;23.368;2024-03-17T05:30:50;9.80;;;4.93;;
61291;SDS011;47165;42.664;23.368;2024-03-17T05:33:16;7.57;;;4.45;;
61291;SDS011;47165;42.664;23.368;2024-03-17T05:35:52;8.40;;;3.85;;
61291;SDS011;47165;42.664;23.368;2024-03-17T05:38:19;10.32;;;4.63;;
61291;SDS011;47165;42.664;23.368;2024-03-17T05:43:29;11.50;;;5.47;;
61291;SDS011;47165;42.664;23.368;2024-03-17T05:45:59;13.00;;;5.38;;
61291;SDS011;47165;42.664;23.368;2024-03-17T05:48:28;7.70;;;4.47;;
61291;SDS011;47165;42.664;23.368;2024-03-17T05:50:54;9.45;;;5.25;;
61291;SDS011;47165;42.664;23.368;2024-03-17T05:53:21;11.88;;;5.95;;
61291;SDS011;47165;42.664;23.368;2024-03-17T05:55:50;11.32;;;5.68;;
61291;SDS011;47165;42.664;23.368;2024-03-17T05:58:16;11.25;;;5.80;;
61291;SDS011;47165;42.664;23.368;2024-03-17T06:00:42;12.52;;;6.00;;
61291;SDS011;47165;42.664;23.368;2024-03-17T06:03:08;9.40;;;5.28;;
61291;SDS011;47165;42.664;23.368;2024-03-17T06:05:38;7.47;;;5.03;;
61291;SDS011;47165;42.664;23.368;2024-03-17T06:08:07;8.10;;;4.85;;
61291;SDS011;47165;42.664;23.368;2024-03-17T06:10:36;11.88;;;5.68;;
61291;SDS011;47165;42.664;23.368;2024-03-17T06:13:03;9.88;;;6.30;;
61291;SDS011;47165;42.664;23.368;2024-03-17T06:15:30;11.88;;;6.18;;
61291;SDS011;47165;42.664;23.368;2024-03-17T06:17:56;11.45;;;5.95;;
61291;SDS011;47165;42.664;23.368;2024-03-17T06:20:25;10.63;;;5.97;;
61291;SDS011;47165;42.664;23.368;2024-03-17T06:22:53;9.82;;;4.90;;
61291;SDS011;47165;42.664;23.368;2024-03-17T06:25:19;14.32;;;6.85;;
61291;SDS011;47165;42.664;23.368;2024-03-17T06:27:44;14.45;;;7.03;;
61291;SDS011;47165;42.664;23.368;2024-03-17T06:30:14;15.73;;;7.88;;
61291;SDS011;47165;42.664;23.368;2024-03-17T06:32:40;19.10;;;7.88;;
61291;SDS011;47165;42.664;23.368;2024-03-17T06:35:06;13.50;;;6.72;;
61291;SDS011;47165;42.664;23.368;2024-03-17T06:37:32;18.70;;;9.80;;
61291;SDS011;47165;42.664;23.368;2024-03-17T06:39:58;17.30;;;8.45;;
61291;SDS011;47165;42.664;23.368;2024-03-17T06:42:23;14.60;;;6.80;;
61291;SDS011;47165;42.664;23.368;2024-03-17T06:44:49;16.67;;;7.97;;
61291;SDS011;47165;42.664;23.368;2024-03-17T06:47:14;15.98;;;8.48;;
61291;SDS011;47165;42.664;23.368;2024-03-17T06:49:40;15.43;;;8.15;;
61291;SDS011;47165;42.664;23.368;2024-03-17T06:52:05;15.02;;;7.43;;
61291;SDS011;47165;42.664;23.368;2024-03-17T06:54:30;15.18;;;7.85;;
61291;SDS011;47165;42.664;23.368;2024-03-17T06:56:59;17.48;;;9.20;;
61291;SDS011;47165;42.664;23.368;2024-03-17T06:59:25;12.48;;;6.50;;
61291;SDS011;47165;42.664;23.368;2024-03-17T07:01:50;12.52;;;6.20;;
61291;SDS011;47165;42.664;23.368;2024-03-17T07:04:16;12.45;;;5.60;;
61291;SDS011;47165;42.664;23.368;2024-03-17T07:06:46;13.27;;;7.25;;
61291;SDS011;47165;42.664;23.368;2024-03-17T07:09:11;15.15;;;7.60;;
61291;SDS011;47165;42.664;23.368;2024-03-17T07:11:37;17.58;;;9.07;;
61291;SDS011;47165;42.664;23.368;2024-03-17T07:14:02;14.15;;;6.72;;
61291;SDS011;47165;42.664;23.368;2024-03-17T07:16:28;18.73;;;9.23;;
61291;SDS011;47165;42.664;23.368;2024-03-17T07:18:54;17.00;;;7.93;;
61291;SDS011;47165;42.664;23.368;2024-03-17T07:21:21;12.02;;;7.97;;
61291;SDS011;47165;42.664;23.368;2024-03-17T07:23:46;14.80;;;8.40;;
61291;SDS011;47165;42.664;23.368;2024-03-17T07:26:12;15.68;;;7.68;;
61291;SDS011;47165;42.664;23.368;2024-03-17T07:28:39;17.83;;;8.73;;
61291;SDS011;47165;42.664;23.368;2024-03-17T07:31:08;18.20;;;10.82;;
61291;SDS011;47165;42.664;23.368;2024-03-17T07:33:34;25.33;;;11.05;;
61291;SDS011;47165;42.664;23.368;2024-03-17T07:36:00;20.80;;;10.40;;
61291;SDS011;47165;42.664;23.368;2024-03-17T07:38:26;20.02;;;8.23;;
61291;SDS011;47165;42.664;23.368;2024-03-17T07:43:25;18.00;;;8.63;;
61291;SDS011;47165;42.664;23.368;2024-03-17T07:46:04;13.98;;;8.27;;
61291;SDS011;47165;42.664;23.368;2024-03-17T07:48:30;21.83;;;8.85;;
61291;SDS011;47165;42.664;23.368;2024-03-17T07:50:57;8.32;;;3.65;;
61291;SDS011;47165;42.664;23.368;2024-03-17T07:53:26;19.52;;;9.57;;
61291;SDS011;47165;42.664;23.368;2024-03-17T07:55:58;22.85;;;10.88;;
61291;SDS011;47165;42.664;23.368;2024-03-17T07:58:34;17.83;;;8.80;;
61291;SDS011;47165;42.664;23.368;2024-03-17T08:01:01;15.63;;;6.82;;
61291;SDS011;47165;42.664;23.368;2024-03-17T08:03:29;13.43;;;7.93;;
61291;SDS011;47165;42.664;23.368;2024-03-17T08:05:56;11.85;;;7.00;;
61291;SDS011;47165;42.664;23.368;2024-03-17T08:08:22;13.68;;;7.82;;
61291;SDS011;47165;42.664;23.368;2024-03-17T08:10:47;21.23;;;9.18;;
61291;SDS011;47165;42.664;23.368;2024-03-17T08:13:16;9.95;;;5.72;;
61291;SDS011;47165;42.664;23.368;2024-03-17T08:15:43;8.82;;;4.18;;
61291;SDS011;47165;42.664;23.368;2024-03-17T08:18:09;9.70;;;3.63;;
61291;SDS011;47165;42.664;23.368;2024-03-17T08:20:41;10.13;;;6.50;;
61291;SDS011;47165;42.664;23.368;2024-03-17T08:23:08;10.80;;;6.33;;
61291;SDS011;47165;42.664;23.368;2024-03-17T08:25:36;15.25;;;7.03;;
61291;SDS011;47165;42.664;23.368;2024-03-17T08:28:02;9.70;;;5.03;;
61291;SDS011;47165;42.664;23.368;2024-03-17T08:30:28;11.15;;;5.28;;
61291;SDS011;47165;42.664;23.368;2024-03-17T08:32:55;7.72;;;4.78;;
61291;SDS011;47165;42.664;23.368;2024-03-17T08:35:21;6.70;;;4.85;;
61291;SDS011;47165;42.664;23.368;2024-03-17T08:37:47;7.80;;;4.57;;
61291;SDS011;47165;42.664;23.368;2024-03-17T08:40:13;13.98;;;6.18;;
61291;SDS011;47165;42.664;23.368;2024-03-17T08:42:39;9.77;;;5.65;;
61291;SDS011;47165;42.664;23.368;2024-03-17T08:45:05;11.63;;;5.97;;
61291;SDS011;47165;42.664;23.368;2024-03-17T08:47:31;8.98;;;3.97;;
61291;SDS011;47165;42.664;23.368;2024-03-17T08:49:57;12.40;;;6.25;;
61291;SDS011;47165;42.664;23.368;2024-03-17T08:52:23;7.85;;;4.30;;
61291;SDS011;47165;42.664;23.368;2024-03-17T08:54:49;14.50;;;6.38;;
61291;SDS011;47165;42.664;23.368;2024-03-17T08:57:18;9.35;;;4.68;;
61291;SDS011;47165;42.664;23.368;2024-03-17T08:59:47;13.57;;;5.97;;
61291;SDS011;47165;42.664;23.368;2024-03-17T09:02:13;19.65;;;9.77;;
61291;SDS011;47165;42.664;23.368;2024-03-17T09:04:40;13.23;;;6.00;;
61291;SDS011;47165;42.664;23.368;2024-03-17T09:07:06;12.15;;;6.95;;
61291;SDS011;47165;42.664;23.368;2024-03-17T09:09:32;12.70;;;7.13;;
61291;SDS011;47165;42.664;23.368;2024-03-17T09:11:58;14.43;;;7.10;;
61291;SDS011;47165;42.664;23.368;2024-03-17T09:14:23;10.38;;;5.50;;
61291;SDS011;47165;42.664;23.368;2024-03-17T09:16:49;13.05;;;6.72;;
61291;SDS011;47165;42.664;23.368;2024-03-17T09:19:15;12.95;;;6.15;;
61291;SDS011;47165;42.664;23.368;2024-03-17T09:21:40;10.02;;;4.78;;
61291;SDS011;47165;42.664;23.368;2024-03-17T09:24:09;11.55;;;6.63;;
61291;SDS011;47165;42.664;23.368;2024-03-17T09:26:34;11.02;;;5.43;;
61291;SDS011;47165;42.664;23.368;2024-03-17T09:29:00;13.18;;;6.78;;
61291;SDS011;47165;42.664;23.368;2024-03-17T09:31:27;15.38;;;7.15;;
61291;SDS011;47165;42.664;23.368;2024-03-17T09:33:53;9.75;;;5.95;;
61291;SDS011;47165;42.664;23.368;2024-03-17T09:36:18;9.02;;;4.72;;
61291;SDS011;47165;42.664;23.368;2024-03-17T09:38:44;13.10;;;6.97;;
61291;SDS011;47165;42.664;23.368;2024-03-17T09:41:22;16.52;;;7.47;;
61291;SDS011;47165;42.664;23.368;2024-03-17T09:43:58;10.52;;;5.97;;
61291;SDS011;47165;42.664;23.368;2024-03-17T09:46:24;11.05;;;5.28;;
61291;SDS011;47165;42.664;23.368;2024-03-17T09:48:51;10.90;;;5.82;;
61291;SDS011;47165;42.664;23.368;2024-03-17T09:51:22;8.77;;;3.33;;
61291;SDS011;47165;42.664;23.368;2024-03-17T09:53:49;7.38;;;4.47;;
61291;SDS011;47165;42.664;23.368;2024-03-17T09:56:16;10.98;;;4.25;;
61291;SDS011;47165;42.664;23.368;2024-03-17T09:58:46;11.10;;;4.72;;
61291;SDS011;47165;42.664;23.368;2024-03-17T10:01:12;7.28;;;3.88;;
61291;SDS011;47165;42.664;23.368;2024-03-17T10:06:10;8.02;;;4.15;;
61291;SDS011;47165;42.664;23.368;2024-03-17T10:08:50;6.97;;;3.80;;
61291;SDS011;47165;42.664;23.368;2024-03-17T10:11:18;7.60;;;3.70;;
61291;SDS011;47165;42.664;23.368;2024-03-17T10:13:45;10.25;;;5.00;;
61291;SDS011;47165;42.664;23.368;2024-03-17T10:16:22;6.75;;;3.50;;
61291;SDS011;47165;42.664;23.368;2024-03-17T10:19:11;7.82;;;4.03;;
61291;SDS011;47165;42.664;23.368;2024-03-17T10:21:40;8.07;;;3.45;;
61291;SDS011;47165;42.664;23.368;2024-03-17T10:24:11;8.30;;;3.75;;
61291;SDS011;47165;42.664;23.368;2024-03-17T10:26:47;8.27;;;4.40;;
61291;SDS011;47165;42.664;23.368;2024-03-17T10:29:21;4.43;;;1.52;;
61291;SDS011;47165;42.664;23.368;2024-03-17T10:31:56;8.07;;;4.05;;
61291;SDS011;47165;42.664;23.368;2024-03-17T10:34:23;7.97;;;3.60;;
61291;SDS011;47165;42.664;23.368;2024-03-17T10:36:51;6.05;;;3.38;;
61291;SDS011;47165;42.664;23.368;2024-03-17T10:39:36;7.53;;;3.58;;
61291;SDS011;47165;42.664;23.368;2024-03-17T10:42:03;4.95;;;2.88;;
61291;SDS011;47165;42.664;23.368;2024-03-17T10:44:31;4.10;;;2.88;;
61291;SDS011;47165;42.664;23.368;2024-03-17T10:46:59;6.00;;;3.55;;
61291;SDS011;47165;42.664;23.368;2024-03-17T10:49:32;6.68;;;3.40;;
61291;SDS011;47165;42.664;23.368;2024-03-17T10:52:00;3.85;;;1.95;;
61291;SDS011;47165;42.664;23.368;2024-03-17T10:54:27;2.95;;;1.63;;
61291;SDS011;47165;42.664;23.368;2024-03-17T10:56:57;4.22;;;2.08;;
61291;SDS011;47165;42.664;23.368;2024-03-17T10:59:44;3.88;;;2.58;;
61291;SDS011;47165;42.664;23.368;2024-03-17T11:02:22;4.72;;;2.15;;
61291;SDS011;47165;42.664;23.368;2024-03-17T11:04:53;3.83;;;2.00;;
61291;SDS011;47165;42.664;23.368;2024-03-17T11:07:22;4.00;;;2.03;;
61291;SDS011;47165;42.664;23.368;2024-03-17T11:09:48;4.82;;;2.15;;
61291;SDS011;47165;42.664;23.368;2024-03-17T11:20:19;4.63;;;2.22;;
61291;SDS011;47165;42.664;23.368;2024-03-17T11:22:48;3.58;;;2.22;;
61291;SDS011;47165;42.664;23.368;2024-03-17T11:44:14;4.85;;;3.22;;
61291;SDS011;47165;42.664;23.368;2024-03-17T11:47:03;4.22;;;2.42;;
61291;SDS011;47165;42.664;23.368;2024-03-17T11:51:57;3.90;;;2.25;;
61291;SDS011;47165;42.664;23.368;2024-03-17T11:54:27;3.13;;;2.10;;
61291;SDS011;47165;42.664;23.368;2024-03-17T11:56:55;6.18;;;3.10;;
61291;SDS011;47165;42.664;23.368;2024-03-17T11:59:23;4.93;;;2.47;;
61291;SDS011;47165;42.664;23.368;2024-03-17T12:01:49;3.63;;;2.88;;
61291;SDS011;47165;42.664;23.368;2024-03-17T12:04:24;4.82;;;2.83;;
61291;SDS011;47165;42.664;23.368;2024-03-17T12:06:51;2.92;;;1.95;;
61291;SDS011;47165;42.664;23.368;2024-03-17T12:09:22;4.95;;;2.50;;
61291;SDS011;47165;42.664;23.368;2024-03-17T12:14:32;7.10;;;3.63;;
61291;SDS011;47165;42.664;23.368;2024-03-17T12:16:59;3.75;;;1.83;;
61291;SDS011;47165;42.664;23.368;2024-03-17T12:19:26;7.93;;;3.53;;
61291;SDS011;47165;42.664;23.368;2024-03-17T12:21:53;4.50;;;2.72;;
61291;SDS011;47165;42.664;23.368;2024-03-17T12:24:21;3.08;;;2.50;;
61291;SDS011;47165;42.664;23.368;2024-03-17T12:26:48;5.43;;;3.40;;
61291;SDS011;47165;42.664;23.368;2024-03-17T12:32:04;5.80;;;3.13;;
61291;SDS011;47165;42.664;23.368;2024-03-17T12:34:33;7.50;;;3.28;;
61291;SDS011;47165;42.664;23.368;2024-03-17T12:37:02;6.50;;;2.90;;
61291;SDS011;47165;42.664;23.368;2024-03-17T12:39:32;6.43;;;2.85;;
61291;SDS011;47165;42.664;23.368;2024-03-17T12:42:02;3.50;;;1.95;;
61291;SDS011;47165;42.664;23.368;2024-03-17T12:44:30;3.05;;;1.92;;
61291;SDS011;47165;42.664;23.368;2024-03-17T12:47:08;5.25;;;3.22;;
61291;SDS011;47165;42.664;23.368;2024-03-17T12:49:44;4.05;;;2.42;;
61291;SDS011;47165;42.664;23.368;2024-03-17T12:52:24;3.05;;;2.28;;
61291;SDS011;47165;42.664;23.368;2024-03-17T12:54:59;5.00;;;2.88;;
61291;SDS011;47165;42.664;23.368;2024-03-17T12:57:50;4.28;;;2.75;;
61291;SDS011;47165;42.664;23.368;2024-03-17T13:00:36;5.05;;;2.60;;
61291;SDS011;47165;42.664;23.368;2024-03-17T13:03:02;4.85;;;3.42;;
61291;SDS011;47165;42.664;23.368;2024-03-17T13:05:29;6.57;;;3.55;;
61291;SDS011;47165;42.664;23.368;2024-03-17T13:07:58;5.68;;;3.85;;
61291;SDS011;47165;42.664;23.368;2024-03-17T13:10:24;6.10;;;3.55;;
61291;SDS011;47165;42.664;23.368;2024-03-17T13:13:04;9.23;;;4.22;;
61291;SDS011;47165;42.664;23.368;2024-03-17T13:15:32;5.65;;;3.40;;
61291;SDS011;47165;42.664;23.368;2024-03-17T13:18:00;4.93;;;3.08;;
61291;SDS011;47165;42.664;23.368;2024-03-17T13:20:26;3.45;;;2.28;;
61291;SDS011;47165;42.664;23.368;2024-03-17T13:22:52;8.32;;;4.05;;
61291;SDS011;47165;42.664;23.368;2024-03-17T13:25:18;6.50;;;3.50;;
61291;SDS011;47165;42.664;23.368;2024-03-17T13:27:49;7.20;;;4.68;;
61291;SDS011;47165;42.664;23.368;2024-03-17T13:30:17;6.88;;;4.10;;
61291;SDS011;47165;42.664;23.368;2024-03-17T13:32:43;5.22;;;3.40;;
61291;SDS011;47165;42.664;23.368;2024-03-17T13:35:19;7.25;;;4.03;;
61291;SDS011;47165;42.664;23.368;2024-03-17T13:37:46;4.80;;;3.35;;
61291;SDS011;47165;42.664;23.368;2024-03-17T13:40:14;6.03;;;3.38;;
61291;SDS011;47165;42.664;23.368;2024-03-17T13:42:43;7.70;;;3.92;;
61291;SDS011;47165;42.664;23.368;2024-03-17T13:45:13;10.90;;;4.57;;
61291;SDS011;47165;42.664;23.368;2024-03-17T13:47:42;7.35;;;4.45;;
61291;SDS011;47165;42.664;23.368;2024-03-17T13:50:12;6.50;;;3.67;;
61291;SDS011;47165;42.664;23.368;2024-03-17T13:52:41;5.55;;;3.03;;
61291;SDS011;47165;42.664;23.368;2024-03-17T13:55:18;6.70;;;3.75;;
61291;SDS011;47165;42.664;23.368;2024-03-17T13:57:54;9.98;;;5.70;;
61291;SDS011;47165;42.664;23.368;2024-03-17T14:00:22;4.82;;;3.20;;
61291;SDS011;47165;42.664;23.368;2024-03-17T14:02:49;7.53;;;4.18;;
61291;SDS011;47165;42.664;23.368;2024-03-17T14:05:17;8.15;;;3.60;;
61291;SDS011;47165;42.664;23.368;2024-03-17T14:07:44;7.75;;;4.63;;
61291;SDS011;47165;42.664;23.368;2024-03-17T14:10:10;11.88;;;3.85;;
61291;SDS011;47165;42.664;23.368;2024-03-17T14:12:37;4.78;;;3.22;;
61291;SDS011;47165;42.664;23.368;2024-03-17T14:15:04;8.63;;;5.38;;
61291;SDS011;47165;42.664;23.368;2024-03-17T14:17:30;6.95;;;3.45;;
61291;SDS011;47165;42.664;23.368;2024-03-17T14:19:56;5.47;;;2.97;;
61291;SDS011;47165;42.664;23.368;2024-03-17T14:22:22;3.17;;;2.35;;
61291;SDS011;47165;42.664;23.368;2024-03-17T14:24:47;3.78;;;2.72;;
61291;SDS011;47165;42.664;23.368;2024-03-17T14:27:14;10.13;;;5.10;;
61291;SDS011;47165;42.664;23.368;2024-03-17T14:29:41;7.10;;;4.15;;
61291;SDS011;47165;42.664;23.368;2024-03-17T14:32:08;6.47;;;4.10;;
61291;SDS011;47165;42.664;23.368;2024-03-17T14:34:34;10.82;;;4.50;;
61291;SDS011;47165;42.664;23.368;2024-03-17T14:37:04;11.25;;;5.15;;
61291;SDS011;47165;42.664;23.368;2024-03-17T14:39:30;6.50;;;4.10;;
61291;SDS011;47165;42.664;23.368;2024-03-17T14:41:57;8.05;;;2.63;;
61291;SDS011;47165;42.664;23.368;2024-03-17T14:44:23;7.80;;;5.18;;
61291;SDS011;47165;42.664;23.368;2024-03-17T14:46:49;9.65;;;3.95;;
61291;SDS011;47165;42.664;23.368;2024-03-17T14:49:18;6.78;;;3.85;;
61291;SDS011;47165;42.664;23.368;2024-03-17T14:51:43;5.53;;;3.70;;
61291;SDS011;47165;42.664;23.368;2024-03-17T14:54:09;4.72;;;3.10;;
61291;SDS011;47165;42.664;23.368;2024-03-17T14:56:35;8.82;;;4.80;;
61291;SDS011;47165;42.664;23.368;2024-03-17T14:59:05;7.43;;;3.80;;
61291;SDS011;47165;42.664;23.368;2024-03-17T15:01:30;8.38;;;4.53;;
61291;SDS011;47165;42.664;23.368;2024-03-17T15:03:56;6.50;;;3.90;;
61291;SDS011;47165;42.664;23.368;2024-03-17T15:06:22;5.72;;;3.95;;
61291;SDS011;47165;42.664;23.368;2024-03-17T15:08:47;8.23;;;3.72;;
61291;SDS011;47165;42.664;23.368;2024-03-17T15:11:13;5.78;;;3.20;;
61291;SDS011;47165;42.664;23.368;2024-03-17T15:13:38;6.25;;;3.72;;
61291;SDS011;47165;42.664;23.368;2024-03-17T15:16:07;11.77;;;4.75;;